34.9F
Current conditions from King Hill
Updated every 5 minutes
 
  Saturday October 23, 2021

Observations for Westford

Westford

44° 37' 38"N, 73° 02' 29"W, Elevation 850 ft.
Eastern Time

Hourly observations for the last 72 hours

Date Time Temperature (°F) Humi-
dity

(%)
Wind
(mph)
Pressure Rain (in)
Air Dew 6 Hour 1 Hr 3 Hr 6 Hr Day
Alt
(in)
Sea
Level

(mb)
Max Min
23 20:00 35.0 32.9 48.0 35.0 92 Calm 29.96 1014.7 0.00
23 19:00 36.2 33.6 90 Calm 29.96 1014.7 0.00
23 18:00 41.2 35.2 79 Calm 29.95 1014.4 0.00
23 17:00 45.3 35.4 68 NNW 1 G 6 29.94 1013.8 0.00
23 16:00 46.1 35.0 65 Calm 29.93 1013.7 0.00
23 15:00 46.2 36.2 68 WNW 0 G 7 29.92 1013.4 0.00
23 14:00 44.0 34.9 46.6 31.6 70 W 0 G 4 29.93 1013.5 0.00
23 13:00 45.9 37.0 71 W 3 G 7 29.94 1014.1 0.00
23 12:00 42.4 37.0 81 NW 0 G 4 29.97 1014.9 0.00
23 11:00 40.9 37.0 86 NNW 0 G 3 29.97 1015.0 0.00
23 10:00 38.6 36.5 92 N 0 G 3 29.97 1014.9 0.00
23 09:00 37.0 36.5 98 Calm 29.98 1015.2 0.00
23 08:00 31.7 30.9 32.9 29.3 97 Calm 29.97 1014.8 0.00
23 07:00 30.2 29.2 96 Calm 29.95 1014.3 0.00
23 06:00 30.6 29.6 96 Calm 29.96 1014.5 0.00
23 05:00 31.2 30.2 96 Calm 29.95 1014.4 0.00
23 04:00 32.7 31.9 97 Calm 29.95 1014.4 0.00
23 03:00 30.7 29.7 96 Calm 29.96 1014.5 0.00
23 02:00 29.6 28.1 40.2 29.6 94 Calm 29.95 1014.3 0.00
23 01:00 32.0 30.5 94 Calm 29.96 1014.5 0.00
23 00:00 32.1 30.3 93 Calm 29.97 1015.0 0.25
22 23:00 34.9 32.0 89 Calm 29.97 1014.9 0.25
22 22:00 37.1 33.9 88 NNW 0 G 4 29.97 1015.0 0.25
22 21:00 38.9 35.9 89 WNW 2 G 5 29.96 1014.7 0.25
22 20:00 40.2 36.6 53.5 40.2 87 N 0 G 6 29.95 1014.3 0.25
22 19:00 40.7 37.1 87 NW 1 G 9 29.94 1013.9 0.25
22 18:00 42.7 38.8 86 N 0 G 9 29.92 1013.1 0.25
22 17:00 46.4 41.2 82 NW 2 G 5 29.89 1012.3 0.25
22 16:00 47.9 42.4 81 NW 1 G 11 29.88 1011.8 0.25
22 15:00 49.8 43.9 80 NNW 2 G 9 29.85 1010.8 0.25
22 14:00 53.2 47.2 55.4 50.3 80 W 2 G 9 29.83 1010.2 0.25
22 13:00 51.0 46.7 85 NW 2 G 10 29.81 1009.6 0.25
22 12:00 52.7 48.9 87 WSW 2 G 11 29.79 1008.9 0.25
22 11:00 52.1 49.3 90 SW 6 G 15 29.76 1007.8 0.25
22 10:00 53.2 51.5 94 W 6 G 11 29.72 1006.6 0.25
22 09:00 55.3 54.2 96 SSW 4 G 13 29.68 1005.0 0.25
22 08:00 55.0 54.2 58.3 54.7 97 S 4 G 12 29.64 1003.6 0.03 0.25 0.25
22 07:00 54.8 54.0 97 S 6 G 14 29.61 1002.7 0.01 0.25
22 06:00 55.0 54.2 97 S 5 G 15 29.59 1002.2 0.02 0.24
22 05:00 55.0 53.9 96 SSE 3 G 11 29.59 1002.2 0.12 0.22 0.22
22 04:00 55.3 53.6 94 S 6 G 15 29.59 1002.2 0.10 0.10
22 03:00 57.4 53.6 87 S 5 G 11 29.60 1002.5 0.00
22 02:00 58.2 53.4 58.2 50.5 84 S 9 G 24 29.61 1002.7 0.01 0.01 0.00
22 01:00 56.4 52.9 88 SSE 4 G 9 29.63 1003.4 0.00
22 00:00 54.1 52.1 93 S 1 G 7 29.67 1004.8 0.01 0.28
21 23:00 52.5 52.0 98 S 1 G 6 29.70 1005.8 0.27
21 22:00 50.8 50.0 97 S 0 G 1 29.72 1006.5 0.27
21 21:00 50.9 50.1 97 Calm 29.74 1007.0 0.27
21 20:00 52.7 51.3 56.1 52.6 95 Calm 29.74 1007.3 0.03 0.27
21 19:00 53.5 52.1 95 S 1 G 7 29.76 1007.7 0.27
21 18:00 55.0 53.0 93 S 0 G 4 29.76 1007.9 0.27
21 17:00 56.0 54.3 94 S 1 G 6 29.77 1008.3 0.03 0.27
21 16:00 55.5 54.1 95 SSE 4 G 9 29.78 1008.7 0.27
21 15:00 54.5 53.4 96 SSE 3 G 11 29.80 1009.2 0.03 0.27
21 14:00 54.1 53.0 57.2 53.9 96 S 7 G 14 29.84 1010.4 0.09 0.19 0.24 0.24
21 13:00 54.4 53.0 95 SSE 4 G 13 29.87 1011.4 0.06 0.15
21 12:00 55.2 53.8 95 S 2 G 12 29.87 1011.5 0.04 0.09
21 11:00 54.2 51.9 92 S 3 G 11 29.88 1011.8 0.05 0.05 0.05
21 10:00 57.1 52.3 84 S 5 G 11 29.89 1012.1 0.00
21 09:00 55.0 51.2 87 S 4 G 6 29.89 1012.4 0.00
21 08:00 54.1 50.3 54.1 49.5 87 S 3 G 10 29.89 1012.2 0.00
21 07:00 52.9 49.7 89 S 6 G 10 29.88 1012.0 0.00
21 06:00 52.2 49.4 90 SSE 4 G 8 29.89 1012.3 0.00
21 05:00 51.1 48.3 90 S 4 G 10 29.89 1012.3 0.00
21 04:00 51.4 48.6 90 S 3 G 8 29.89 1012.3 0.00
21 03:00 49.7 47.2 91 S 2 G 7 29.89 1012.4 0.00
21 02:00 50.5 48.0 54.5 48.1 91 S 3 G 7 29.90 1012.5 0.00
21 01:00 49.5 47.3 92 S 3 G 5 29.89 1012.2 0.00
21 00:00 51.9 48.5 88 S 0 G 4 29.90 1012.5 0.01
20 23:00 53.5 49.1 85 S 0 G 5 29.90 1012.6 0.01
20 22:00 53.1 49.9 89 S 2 G 5 29.89 1012.4 0.01
20 21:00 49.9 48.5 95 N 1 G 4 29.89 1012.3 0.01

Data generated by WxSolution Version 1.9.1.7, Build 2018.11.24.


 
 
Current Radar Loop:

Copyright © WestfordWeather.net 2007-2021. All rights reserved.